Terminal Aerodrome Forecast
Issued by NWS Medford, OR

Home | Current Version | Previous Version | Text Only | Print | Product List | Glossary On
Versions: 1 2 3 4 5 6 7 8 9 10 11 12 13 14 15 16 17 18 19
526
FTUS46 KMFR 141143
TAFMFR
TAF
KMFR 141143Z 1412/1512 00000KT 4SM -RA BR BKN010 OVC025
     FM141800 VRB03KT 6SM -RA BR SCT007 BKN015 OVC025
     FM150300 00000KT P6SM BKN010 OVC020=

USA.gov is the U.S. government's official web portal to all federal, state and local government web resources and services.